Hub


Voltar

 INFORMAÇÕES METEOROLÓGICAS

METAR FOR SBSG


ADDS - METARS form results

(0317 UTC 22 March 2019)
Data provider http://aviationweather.gov/metar/data/
 
METAR text: SBSG 220300Z 32004KT 9999 FEW020 26/25 Q1011
Conditions at: SBSG (NATAL , BR) observed 0300 UTC 22 March 2019
Temperature: 26.0°C (79°F)
Dewpoint: 25.0°C (77°F) [RH = 94%]
Pressure (altimeter): 29.85 inches Hg (1011.0 mb)
Winds: from the NW (320 degrees) at 5 MPH (4 knots; 2.1 m/s)
Visibility: 6 or more miles (10+ km)
Ceiling: at least 12,000 feet AGL
Clouds: few clouds at 2000 feet AGL
Weather: no significant weather observed at this time


 MAPA DO AEROPORTO


 INFORMAÇÕES DA PISTA

Pista 12 Tamanho da pista 9843 ft Largura da pista 197 ft
Elevação da pista 273 ft Ranhura da pista 0 ft Proa da pista 99
Pista 30 Tamanho da pista 9843 ft Largura da pista 197 ft
Elevação da pista 264 ft Ranhura da pista 0 ft Proa da pista 279

 FREQUÊNCIAS DO AEROPORTO

Tipo ATIS Nome Frequência 127.6 MHZ
Tipo ILS Nome Frequência 109.7 MHZ
Tipo TWR Nome Frequência 118.2 MHZ

 AUXÍLIOS DE NAVEGAÇÃO PRÓXIMOS AO AEROPORTO